Chilly, Idaho
Current Conditions -  °F | °C
As of 9:47 AM on Saturday 22 Nov 2014 (Local Time) from KSUN Reporting Station
Light Snow Light Snow  
Wind Chill: 30°   Ceiling: 700
Heat Index: 34°   Visibility: 3mi
Dew Point: 34°   Wind: 5mph
Humidity: 100%   Direction: 140°SE
Pressure: 29.7"   Gusts: NA
Location:  43.8935°N, 113.876°W
Report Text: KSUN 221647Z 14004KT 3SM -SN OVC007 01/01 A2970
Loading
Personal Weather Stations






























Interactive Weather Map New forecast layout! Learn more

10-Day Weather Forecast

Advertisements
Track Severe Weather on mobile